createdAt,value
2023-05-21T00:00:45.569Z,99005.06
2023-05-21T00:03:13.771Z,99002.31
2023-05-21T00:05:40.972Z,99001.50
2023-05-21T00:08:07.568Z,98991.97
2023-05-21T00:10:34.181Z,99002.34
2023-05-21T00:13:00.686Z,98995.41
2023-05-21T00:15:27.120Z,98990.22
2023-05-21T00:17:53.692Z,98997.16
2023-05-21T00:20:20.178Z,98985.03
2023-05-21T00:22:48.187Z,98984.88
2023-05-21T00:25:17.293Z,98986.59
2023-05-21T00:27:43.756Z,98979.50
2023-05-21T00:30:10.462Z,98981.22
2023-05-21T00:32:37.643Z,98976.91
2023-05-21T00:35:04.392Z,98972.44
2023-05-21T00:37:34.062Z,98969.00
2023-05-21T00:40:01.724Z,98971.59
2023-05-21T00:42:30.640Z,98964.69
2023-05-21T00:44:57.657Z,98959.41
2023-05-21T00:47:24.369Z,98960.00
2023-05-21T00:49:53.316Z,98956.56
2023-05-21T00:52:20.355Z,98952.13
2023-05-21T00:54:49.415Z,98949.38
2023-05-21T00:57:17.866Z,98949.38
2023-05-21T00:59:44.548Z,98947.56
2023-05-21T01:02:14.253Z,98945.09
2023-05-21T01:04:40.857Z,98947.72
2023-05-21T01:07:09.476Z,98948.59
2023-05-21T01:09:36.110Z,98953.78
2023-05-21T01:12:06.469Z,98948.75
2023-05-21T01:14:34.151Z,98941.94
2023-05-21T01:17:02.191Z,98950.50
2023-05-21T01:19:29.086Z,98954.78
2023-05-21T01:22:00.801Z,98956.47
2023-05-21T01:24:27.218Z,98948.63
2023-05-21T01:26:53.858Z,98945.75
2023-05-21T01:29:20.767Z,98947.56
2023-05-21T01:32:05.766Z,98951.09
2023-05-21T01:35:05.073Z,98943.06
2023-05-21T01:37:45.980Z,98938.91
2023-05-21T01:40:52.036Z,98938.97
2023-05-21T01:43:19.798Z,98929.50
2023-05-21T01:45:47.658Z,98933.75
2023-05-21T01:48:14.951Z,98930.34
2023-05-21T01:50:42.925Z,98932.03
2023-05-21T01:53:09.450Z,98923.31
2023-05-21T01:55:39.506Z,98932.75
2023-05-21T01:58:05.987Z,98928.31
2023-05-21T02:00:32.668Z,98930.06
2023-05-21T02:02:59.700Z,98928.41
2023-05-21T02:05:26.293Z,98932.72
2023-05-21T02:07:52.788Z,98927.28
2023-05-21T02:10:19.481Z,98930.91
2023-05-21T02:12:46.221Z,98935.94
2023-05-21T02:15:14.271Z,98935.13
2023-05-21T02:17:42.346Z,98936.00
2023-05-21T02:20:17.998Z,98925.69
2023-05-21T02:22:46.874Z,98929.97
2023-05-21T02:25:18.279Z,98929.66
2023-05-21T02:27:46.552Z,98926.97
2023-05-21T02:30:14.788Z,98926.03
2023-05-21T02:32:45.043Z,98927.81
2023-05-21T02:35:12.926Z,98931.84
2023-05-21T02:37:40.583Z,98929.13
2023-05-21T02:40:07.902Z,98917.78
2023-05-21T02:42:36.474Z,98920.50
2023-05-21T02:45:03.019Z,98921.16
2023-05-21T02:47:29.489Z,98920.38
2023-05-21T02:49:59.720Z,98923.69
2023-05-21T02:52:26.274Z,98924.22
2023-05-21T02:54:54.093Z,98931.84
2023-05-21T02:57:20.525Z,98936.34
2023-05-21T02:59:46.961Z,98925.03
2023-05-21T03:02:13.538Z,98925.97
2023-05-21T03:04:46.236Z,98922.03
2023-05-21T03:07:14.427Z,98923.16
2023-05-21T03:09:42.044Z,98926.31
2023-05-21T03:12:09.187Z,98922.22
2023-05-21T03:14:38.678Z,98923.59
2023-05-21T03:17:08.536Z,98931.09
2023-05-21T03:19:35.942Z,98917.34
2023-05-21T03:22:04.488Z,98921.69
2023-05-21T03:24:31.773Z,98912.22
2023-05-21T03:26:59.241Z,98920.63
2023-05-21T03:29:25.718Z,98922.25
2023-05-21T03:31:53.898Z,98915.44
2023-05-21T03:34:20.788Z,98920.44
2023-05-21T03:36:47.836Z,98924.53
2023-05-21T03:39:14.486Z,98914.13
2023-05-21T03:41:41.009Z,98915.81
2023-05-21T03:44:07.652Z,98919.34
2023-05-21T03:46:34.296Z,98909.91
2023-05-21T03:49:00.868Z,98913.22
2023-05-21T03:51:27.647Z,98916.72
2023-05-21T03:53:54.136Z,98914.16
2023-05-21T03:56:21.568Z,98920.16
2023-05-21T03:58:48.182Z,98912.97
2023-05-21T04:01:14.645Z,98912.78
2023-05-21T04:03:41.427Z,98912.09
2023-05-21T04:06:10.167Z,98905.69
2023-05-21T04:08:37.941Z,98915.31
2023-05-21T04:11:04.436Z,98907.75
2023-05-21T04:13:30.907Z,98909.25
2023-05-21T04:15:57.378Z,98914.94
2023-05-21T04:18:25.849Z,98909.03
2023-05-21T04:20:52.675Z,98912.50
2023-05-21T04:23:19.206Z,98915.50
2023-05-21T04:25:45.697Z,98917.28
2023-05-21T04:28:12.192Z,98923.19
2023-05-21T04:30:38.679Z,98926.78
2023-05-21T04:33:05.171Z,98928.50
2023-05-21T04:35:31.893Z,98927.66
2023-05-21T04:37:58.385Z,98932.91
2023-05-21T04:40:24.820Z,98925.09
2023-05-21T04:42:51.546Z,98936.31
2023-05-21T04:45:18.051Z,98924.41
2023-05-21T04:47:44.570Z,98933.13
2023-05-21T04:50:11.059Z,98924.56
2023-05-21T04:52:40.213Z,98926.25
2023-05-21T04:55:09.994Z,98927.97
2023-05-21T04:57:36.933Z,98934.94
2023-05-21T05:00:06.444Z,98926.47
2023-05-21T05:02:32.899Z,98926.34
2023-05-21T05:04:59.859Z,98929.16
2023-05-21T05:07:26.724Z,98932.69
2023-05-21T05:09:53.258Z,98930.31
2023-05-21T05:12:19.722Z,98934.59
2023-05-21T05:14:46.190Z,98924.28
2023-05-21T05:17:15.235Z,98934.59
2023-05-21T05:19:41.836Z,98927.81
2023-05-21T05:22:17.422Z,98930.53
2023-05-21T05:24:43.959Z,98933.38
2023-05-21T05:27:10.540Z,98930.00
2023-05-21T05:29:37.007Z,98935.88
2023-05-21T05:32:06.280Z,98933.34
2023-05-21T05:34:32.831Z,98932.09
2023-05-21T05:36:59.261Z,98926.91
2023-05-21T05:39:25.747Z,98932.22
2023-05-21T05:41:52.191Z,98931.47
2023-05-21T05:44:18.616Z,98931.41
2023-05-21T05:46:54.188Z,98932.38
2023-05-21T05:49:20.770Z,98940.59
2023-05-21T05:51:47.485Z,98938.28
2023-05-21T05:54:13.950Z,98943.84
2023-05-21T05:56:40.478Z,98945.03
2023-05-21T05:59:06.929Z,98941.91
2023-05-21T06:01:36.717Z,98942.97
2023-05-21T06:04:03.350Z,98945.72
2023-05-21T06:06:29.877Z,98944.09
2023-05-21T06:08:56.407Z,98944.44
2023-05-21T06:11:22.903Z,98943.88
2023-05-21T06:13:49.400Z,98937.88
2023-05-21T06:16:15.924Z,98939.25
2023-05-21T06:18:42.518Z,98939.06
2023-05-21T06:21:11.033Z,98940.41
2023-05-21T06:23:38.055Z,98942.69
2023-05-21T06:26:04.847Z,98939.06
2023-05-21T06:28:31.278Z,98939.63
2023-05-21T06:30:57.762Z,98933.81
2023-05-21T06:33:24.319Z,98934.97
2023-05-21T06:35:50.805Z,98938.22
2023-05-21T06:38:17.245Z,98932.66
2023-05-21T06:40:44.711Z,98937.16
2023-05-21T06:43:11.245Z,98942.06
2023-05-21T06:45:38.210Z,98936.13
2023-05-21T06:48:05.205Z,98924.28
2023-05-21T06:50:31.759Z,98930.59
2023-05-21T06:52:58.453Z,98928.16
2023-05-21T06:55:24.889Z,98930.88
2023-05-21T06:57:51.325Z,98937.91
2023-05-21T07:00:18.545Z,98933.56
2023-05-21T07:02:45.083Z,98938.84
2023-05-21T07:05:11.690Z,98938.84
2023-05-21T07:07:38.208Z,98941.53
2023-05-21T07:10:05.217Z,98944.09
2023-05-21T07:12:31.722Z,98950.16
2023-05-21T07:14:59.331Z,98945.84
2023-05-21T07:17:26.248Z,98944.03
2023-05-21T07:19:52.820Z,98943.25
2023-05-21T07:22:19.363Z,98949.31
2023-05-21T07:24:48.932Z,98948.44
2023-05-21T07:27:25.191Z,98944.13
2023-05-21T07:29:53.873Z,98944.09
2023-05-21T07:32:21.699Z,98929.28
2023-05-21T07:34:52.108Z,98937.09
2023-05-21T07:37:20.752Z,98939.72
2023-05-21T07:39:47.272Z,98934.47
2023-05-21T07:42:13.886Z,98929.25
2023-05-21T07:44:40.420Z,98928.41
2023-05-21T07:47:06.872Z,98933.66
2023-05-21T07:49:33.312Z,98931.00
2023-05-21T07:51:59.815Z,98931.88
2023-05-21T07:54:26.343Z,98924.94
2023-05-21T07:56:52.834Z,98924.06
2023-05-21T07:59:19.338Z,98924.94
2023-05-21T08:01:46.244Z,98924.09
2023-05-21T08:04:12.807Z,98924.97
2023-05-21T08:06:39.415Z,98913.66
2023-05-21T08:09:06.689Z,98919.75
2023-05-21T08:11:33.251Z,98919.72
2023-05-21T08:14:00.684Z,98918.88
2023-05-21T08:16:27.205Z,98912.81
2023-05-21T08:18:53.783Z,98926.75
2023-05-21T08:21:23.181Z,98924.97
2023-05-21T08:23:52.645Z,98922.38
2023-05-21T08:26:19.121Z,98920.59
2023-05-21T08:28:45.731Z,98914.44
2023-05-21T08:31:12.445Z,98912.66
2023-05-21T08:33:39.049Z,98917.88
2023-05-21T08:36:06.406Z,98920.41
2023-05-21T08:38:33.014Z,98905.47
2023-05-21T08:41:00.479Z,98917.78
2023-05-21T08:43:28.344Z,98916.88
2023-05-21T08:45:56.486Z,98919.44
2023-05-21T08:48:24.219Z,98912.38
2023-05-21T08:50:52.285Z,98911.50
2023-05-21T08:53:27.528Z,98910.81
2023-05-21T08:56:02.293Z,98906.31
2023-05-21T08:58:29.888Z,98910.84
2023-05-21T09:00:56.780Z,98909.91
2023-05-21T09:03:24.293Z,98912.59
2023-05-21T09:05:53.805Z,98907.84
2023-05-21T09:08:25.693Z,98910.44
2023-05-21T09:10:52.925Z,98918.25
2023-05-21T09:13:20.643Z,98902.84
2023-05-21T09:15:47.702Z,98896.56
2023-05-21T09:18:14.738Z,98908.22
2023-05-21T09:20:41.271Z,98899.97
2023-05-21T09:23:12.525Z,98907.25
2023-05-21T09:25:39.460Z,98904.69
2023-05-21T09:28:12.183Z,98892.06
2023-05-21T09:30:47.036Z,98892.78
2023-05-21T09:33:27.586Z,98882.97
2023-05-21T09:35:54.173Z,98891.75
2023-05-21T09:38:26.104Z,98894.34
2023-05-21T09:40:56.010Z,98881.03
2023-05-21T09:43:22.488Z,98884.66
2023-05-21T09:45:53.163Z,98887.88
2023-05-21T09:48:42.126Z,98882.75
2023-05-21T09:51:10.766Z,98883.31
2023-05-21T09:53:42.690Z,98891.22
2023-05-21T09:56:09.732Z,98887.28
2023-05-21T09:58:36.212Z,98879.59
2023-05-21T10:01:02.716Z,98878.31
2023-05-21T10:03:31.982Z,98887.88
2023-05-21T10:05:59.625Z,98887.69
2023-05-21T10:08:27.518Z,98890.59
2023-05-21T10:10:53.973Z,98883.91
2023-05-21T10:13:24.856Z,98876.50
2023-05-21T10:15:57.685Z,98873.72
2023-05-21T10:18:24.753Z,98871.09
2023-05-21T10:20:51.470Z,98880.34
2023-05-21T10:23:21.323Z,98881.22
2023-05-21T10:25:49.293Z,98865.38
2023-05-21T10:28:19.562Z,98861.75
2023-05-21T10:30:46.349Z,98865.06
2023-05-21T10:33:16.292Z,98860.94
2023-05-21T10:35:44.953Z,98866.78
2023-05-21T10:38:12.099Z,98862.63
2023-05-21T10:40:38.844Z,98871.69
2023-05-21T10:43:30.873Z,98868.50
2023-05-21T10:46:08.494Z,98857.78
2023-05-21T10:48:56.620Z,98861.22
2023-05-21T10:51:29.122Z,98857.13
2023-05-21T10:54:09.036Z,98857.25
2023-05-21T10:56:54.272Z,98855.22
2023-05-21T10:59:33.523Z,98862.09
2023-05-21T11:02:00.337Z,98856.09
2023-05-21T11:04:27.625Z,98856.38
2023-05-21T11:06:54.176Z,98857.59
2023-05-21T11:09:20.819Z,98856.81
2023-05-21T11:11:57.966Z,98853.97
2023-05-21T11:14:56.793Z,98857.97
2023-05-21T11:17:44.696Z,98857.69
2023-05-21T11:20:15.066Z,98856.53
2023-05-21T11:22:41.600Z,98854.06
2023-05-21T11:25:08.607Z,98853.38
2023-05-21T11:27:42.146Z,98850.81
2023-05-21T11:30:14.884Z,98854.66
2023-05-21T11:33:11.296Z,98849.09
2023-05-21T11:35:49.795Z,98849.81
2023-05-21T11:38:17.611Z,98852.09
2023-05-21T11:40:54.658Z,98851.44
2023-05-21T11:43:21.134Z,98846.25
2023-05-21T11:45:47.802Z,98837.25
2023-05-21T11:48:14.554Z,98838.41
2023-05-21T11:50:42.568Z,98833.81
2023-05-21T11:53:09.122Z,98838.28
2023-05-21T11:55:40.000Z,98839.03
2023-05-21T11:58:08.980Z,98835.06
2023-05-21T12:00:40.158Z,98832.94
2023-05-21T12:03:12.940Z,98835.59
2023-05-21T12:05:49.504Z,98825.28
2023-05-21T12:08:25.705Z,98836.53
2023-05-21T12:10:59.188Z,98833.09
2023-05-21T12:13:28.374Z,98823.03
2023-05-21T12:15:54.898Z,98830.56
2023-05-21T12:18:21.958Z,98825.84
2023-05-21T12:20:48.506Z,98827.47
2023-05-21T12:23:24.117Z,98827.94
2023-05-21T12:25:51.372Z,98826.50
2023-05-21T12:28:17.870Z,98820.34
2023-05-21T12:30:44.414Z,98830.50
2023-05-21T12:33:12.091Z,98821.09
2023-05-21T12:35:38.753Z,98828.91
2023-05-21T12:38:05.295Z,98825.28
2023-05-21T12:40:39.720Z,98825.06
2023-05-21T12:43:07.065Z,98821.19
2023-05-21T12:45:33.602Z,98823.81
2023-05-21T12:48:03.497Z,98828.38
2023-05-21T12:50:30.049Z,98827.88
2023-05-21T12:52:58.010Z,98828.50
2023-05-21T12:55:26.100Z,98824.13
2023-05-21T12:58:03.630Z,98813.63
2023-05-21T13:00:30.421Z,98822.31
2023-05-21T13:02:59.562Z,98820.19
2023-05-21T13:05:28.851Z,98827.66
2023-05-21T13:07:55.306Z,98814.25
2023-05-21T13:10:21.774Z,98810.34
2023-05-21T13:12:48.249Z,98811.59
2023-05-21T13:15:15.286Z,98808.94
2023-05-21T13:17:41.832Z,98815.28
2023-05-21T13:20:15.930Z,98814.13
2023-05-21T13:22:43.457Z,98810.97
2023-05-21T13:25:15.673Z,98807.84
2023-05-21T13:27:43.343Z,98814.06
2023-05-21T13:30:11.641Z,98806.75
2023-05-21T13:32:40.411Z,98811.88
2023-05-21T13:35:07.684Z,98804.94
2023-05-21T13:37:37.438Z,98809.03
2023-05-21T13:40:11.920Z,98802.94
2023-05-21T13:42:38.694Z,98805.28
2023-05-21T13:45:06.515Z,98808.63
2023-05-21T13:47:33.636Z,98807.16
2023-05-21T13:50:00.594Z,98808.69
2023-05-21T13:52:27.066Z,98817.34
2023-05-21T13:54:53.653Z,98810.38
2023-05-21T13:57:20.481Z,98812.28
2023-05-21T13:59:46.987Z,98816.50
2023-05-21T14:02:14.965Z,98821.84
2023-05-21T14:04:41.494Z,98816.66
2023-05-21T14:07:08.066Z,98801.88
2023-05-21T14:09:34.600Z,98817.38
2023-05-21T14:12:01.515Z,98803.53
2023-05-21T14:14:28.088Z,98806.56
2023-05-21T14:16:54.995Z,98814.88
2023-05-21T14:19:21.690Z,98809.34
2023-05-21T14:21:48.262Z,98805.06
2023-05-21T14:24:14.701Z,98800.13
2023-05-21T14:26:41.409Z,98810.50
2023-05-21T14:29:08.581Z,98808.97
2023-05-21T14:31:35.445Z,98807.78
2023-05-21T14:34:02.889Z,98808.97
2023-05-21T14:36:29.630Z,98801.53
2023-05-21T14:38:59.249Z,98797.50
2023-05-21T14:41:26.808Z,98798.78
2023-05-21T14:43:53.572Z,98802.47
2023-05-21T14:46:20.263Z,98806.72
2023-05-21T14:48:46.759Z,98798.00
2023-05-21T14:51:13.808Z,98802.88
2023-05-21T14:53:41.066Z,98808.06
2023-05-21T14:56:07.984Z,98799.34
2023-05-21T14:58:34.589Z,98807.66
2023-05-21T15:01:02.267Z,98805.03
2023-05-21T15:03:28.915Z,98798.25
2023-05-21T15:05:55.653Z,98800.16
2023-05-21T15:08:22.634Z,98798.09
2023-05-21T15:10:49.233Z,98800.41
2023-05-21T15:13:15.774Z,98804.81
2023-05-21T15:15:42.386Z,98792.03
2023-05-21T15:18:08.999Z,98797.94
2023-05-21T15:20:35.659Z,98795.38
2023-05-21T15:23:16.180Z,98791.75
2023-05-21T15:25:45.767Z,98799.19
2023-05-21T15:28:12.583Z,98802.41
2023-05-21T15:30:39.429Z,98806.91
2023-05-21T15:33:06.171Z,98798.34
2023-05-21T15:35:32.851Z,98792.50
2023-05-21T15:37:59.469Z,98783.84
2023-05-21T15:40:27.225Z,98788.97
2023-05-21T15:42:54.127Z,98780.50
2023-05-21T15:45:20.671Z,98783.44
2023-05-21T15:47:47.172Z,98783.75
2023-05-21T15:50:13.771Z,98782.63
2023-05-21T15:52:42.748Z,98783.69
2023-05-21T15:55:09.579Z,98790.72
2023-05-21T15:57:36.135Z,98789.81
2023-05-21T16:00:02.803Z,98787.22
2023-05-21T16:02:29.305Z,98794.81
2023-05-21T16:04:55.889Z,98797.41
2023-05-21T16:07:23.433Z,98799.69
2023-05-21T16:09:50.451Z,98797.16
2023-05-21T16:12:19.775Z,98802.72
2023-05-21T16:14:49.741Z,98806.66
2023-05-21T16:17:16.399Z,98807.56
2023-05-21T16:19:42.902Z,98804.91
2023-05-21T16:22:10.718Z,98813.63
2023-05-21T16:24:37.627Z,98823.09
2023-05-21T16:27:04.970Z,98811.25
2023-05-21T16:29:31.660Z,98810.53
2023-05-21T16:31:58.175Z,98805.91
2023-05-21T16:34:24.716Z,98801.44
2023-05-21T16:36:51.765Z,98802.31
2023-05-21T16:39:18.319Z,98807.59
2023-05-21T16:41:44.872Z,98807.06
2023-05-21T16:44:11.531Z,98802.22
2023-05-21T16:46:38.066Z,98805.56
2023-05-21T16:49:04.587Z,98806.13
2023-05-21T16:51:31.590Z,98804.44
2023-05-21T16:53:58.078Z,98800.84
2023-05-21T16:56:24.755Z,98807.31
2023-05-21T16:58:51.199Z,98811.88
2023-05-21T17:01:17.748Z,98802.78
2023-05-21T17:03:44.456Z,98800.19
2023-05-21T17:06:10.927Z,98805.81
2023-05-21T17:08:37.393Z,98802.28
2023-05-21T17:11:03.981Z,98796.31
2023-05-21T17:13:30.730Z,98797.28
2023-05-21T17:15:57.208Z,98798.16
2023-05-21T17:18:23.694Z,98804.16
2023-05-21T17:20:50.307Z,98802.78
2023-05-21T17:23:16.824Z,98806.25
2023-05-21T17:25:43.623Z,98799.28
2023-05-21T17:28:11.258Z,98804.69
2023-05-21T17:30:37.790Z,98795.91
2023-05-21T17:33:04.318Z,98797.72
2023-05-21T17:35:30.822Z,98801.50
2023-05-21T17:37:59.427Z,98800.63
2023-05-21T17:40:25.957Z,98810.47
2023-05-21T17:42:53.166Z,98809.06
2023-05-21T17:45:20.121Z,98815.53
2023-05-21T17:47:46.702Z,98820.78
2023-05-21T17:50:13.338Z,98817.75
2023-05-21T17:52:39.915Z,98813.19
2023-05-21T17:55:07.744Z,98821.13
2023-05-21T17:57:35.484Z,98821.44
2023-05-21T18:00:02.790Z,98820.47
2023-05-21T18:02:29.314Z,98825.66
2023-05-21T18:04:55.978Z,98826.59
2023-05-21T18:07:22.470Z,98826.06
2023-05-21T18:09:49.534Z,98828.03
2023-05-21T18:12:16.428Z,98836.69
2023-05-21T18:14:42.912Z,98825.41
2023-05-21T18:17:09.619Z,98835.06
2023-05-21T18:19:37.268Z,98840.53
2023-05-21T18:22:04.949Z,98833.88
2023-05-21T18:24:31.476Z,98827.84
2023-05-21T18:26:58.028Z,98833.03
2023-05-21T18:29:24.478Z,98835.03
2023-05-21T18:31:51.232Z,98828.88
2023-05-21T18:34:17.801Z,98838.50
2023-05-21T18:36:44.249Z,98834.13
2023-05-21T18:39:10.787Z,98833.47
2023-05-21T18:41:38.605Z,98832.75
2023-05-21T18:44:06.094Z,98829.22
2023-05-21T18:46:32.729Z,98832.94
2023-05-21T18:48:59.754Z,98841.69
2023-05-21T18:51:26.254Z,98825.88
2023-05-21T18:53:52.783Z,98833.81
2023-05-21T18:56:19.273Z,98834.72
2023-05-21T18:58:45.740Z,98836.53
2023-05-21T19:01:12.607Z,98835.75
2023-05-21T19:03:40.250Z,98833.28
2023-05-21T19:06:06.750Z,98841.09
2023-05-21T19:08:33.671Z,98843.78
2023-05-21T19:11:00.276Z,98842.00
2023-05-21T19:13:26.858Z,98843.84
2023-05-21T19:15:53.460Z,98843.00
2023-05-21T19:18:20.042Z,98840.38
2023-05-21T19:20:46.530Z,98845.69
2023-05-21T19:23:16.199Z,98842.13
2023-05-21T19:25:42.711Z,98840.47
2023-05-21T19:28:09.194Z,98849.19
2023-05-21T19:30:36.493Z,98849.16
2023-05-21T19:33:03.308Z,98846.63
2023-05-21T19:35:30.086Z,98847.47
2023-05-21T19:38:00.194Z,98854.44
2023-05-21T19:40:27.722Z,98856.22
2023-05-21T19:42:54.143Z,98862.28
2023-05-21T19:45:21.449Z,98858.81
2023-05-21T19:47:48.134Z,98860.56
2023-05-21T19:50:14.734Z,98869.25
2023-05-21T19:52:41.198Z,98866.66
2023-05-21T19:55:10.249Z,98864.03
2023-05-21T19:57:37.175Z,98866.66
2023-05-21T20:00:05.154Z,98869.28
2023-05-21T20:02:31.735Z,98871.88
2023-05-21T20:04:59.188Z,98870.13
2023-05-21T20:07:25.834Z,98874.47
2023-05-21T20:09:52.400Z,98874.47
2023-05-21T20:12:19.166Z,98877.09
2023-05-21T20:14:46.840Z,98876.22
2023-05-21T20:17:14.399Z,98877.97
2023-05-21T20:19:41.119Z,98877.94
2023-05-21T20:22:07.663Z,98884.00
2023-05-21T20:24:34.220Z,98881.41
2023-05-21T20:27:01.565Z,98884.00
2023-05-21T20:29:28.787Z,98884.88
2023-05-21T20:31:55.412Z,98884.88
2023-05-21T20:34:24.616Z,98883.00
2023-05-21T20:36:54.842Z,98883.03
2023-05-21T20:39:22.924Z,98883.91
2023-05-21T20:41:49.377Z,98889.97
2023-05-21T20:44:18.310Z,98887.34
2023-05-21T20:46:44.857Z,98895.00
2023-05-21T20:49:11.823Z,98889.84
2023-05-21T20:51:38.454Z,98896.88
2023-05-21T20:54:09.140Z,98894.28
2023-05-21T20:56:42.058Z,98890.78
2023-05-21T20:59:10.874Z,98890.69
2023-05-21T21:01:38.134Z,98898.38
2023-05-21T21:04:05.099Z,98897.66
2023-05-21T21:06:31.830Z,98892.47
2023-05-21T21:08:58.497Z,98899.41
2023-05-21T21:11:25.154Z,98900.28
2023-05-21T21:13:51.967Z,98900.28
2023-05-21T21:16:18.641Z,98902.88
2023-05-21T21:18:46.919Z,98895.84
2023-05-21T21:21:13.776Z,98901.91
2023-05-21T21:23:40.443Z,98901.75
2023-05-21T21:26:07.072Z,98894.09
2023-05-21T21:28:33.665Z,98887.13
2023-05-21T21:31:00.255Z,98899.31
2023-05-21T21:33:26.916Z,98899.25
2023-05-21T21:35:53.465Z,98900.81
2023-05-21T21:38:19.966Z,98899.00
2023-05-21T21:40:46.437Z,98895.53
2023-05-21T21:43:12.887Z,98896.41
2023-05-21T21:45:39.394Z,98899.94
2023-05-21T21:48:06.651Z,98893.75
2023-05-21T21:50:33.192Z,98892.97
2023-05-21T21:52:59.958Z,98892.09
2023-05-21T21:55:26.446Z,98898.16
2023-05-21T21:57:52.959Z,98895.47
2023-05-21T22:00:20.810Z,98899.81
2023-05-21T22:02:47.316Z,98897.16
2023-05-21T22:05:16.923Z,98898.06
2023-05-21T22:07:47.542Z,98904.97
2023-05-21T22:10:15.162Z,98900.63
2023-05-21T22:12:42.143Z,98901.47
2023-05-21T22:15:11.319Z,98903.03
2023-05-21T22:17:38.274Z,98905.72
2023-05-21T22:20:05.925Z,98910.09
2023-05-21T22:22:32.403Z,98904.84
2023-05-21T22:24:58.898Z,98902.13
2023-05-21T22:27:25.413Z,98909.16
2023-05-21T22:29:51.866Z,98902.91
2023-05-21T22:32:21.137Z,98915.84
2023-05-21T22:34:50.484Z,98910.50
2023-05-21T22:37:17.812Z,98911.41
2023-05-21T22:39:44.299Z,98914.94
2023-05-21T22:42:11.039Z,98912.97
2023-05-21T22:44:37.458Z,98907.00
2023-05-21T22:47:04.100Z,98916.47
2023-05-21T22:49:32.650Z,98914.59
2023-05-21T22:52:05.113Z,98915.28
2023-05-21T22:54:32.703Z,98906.56
2023-05-21T22:57:00.156Z,98915.97
2023-05-21T22:59:26.680Z,98904.72
2023-05-21T23:01:54.997Z,98910.06
2023-05-21T23:04:35.747Z,98911.72
2023-05-21T23:07:09.595Z,98906.38
2023-05-21T23:09:36.566Z,98905.59
2023-05-21T23:12:03.546Z,98903.88
2023-05-21T23:14:30.027Z,98907.28
2023-05-21T23:17:02.038Z,98903.66
2023-05-21T23:19:29.549Z,98898.44
2023-05-21T23:21:56.387Z,98907.84
2023-05-21T23:24:22.981Z,98905.25
2023-05-21T23:26:49.484Z,98904.41
2023-05-21T23:29:15.960Z,98906.75
2023-05-21T23:31:42.663Z,98904.88
2023-05-21T23:34:09.538Z,98910.38
2023-05-21T23:36:36.194Z,98907.81
2023-05-21T23:39:02.795Z,98910.38
2023-05-21T23:41:29.670Z,98902.69
2023-05-21T23:43:56.122Z,98908.66
2023-05-21T23:46:22.831Z,98909.63
2023-05-21T23:48:49.510Z,98911.28
2023-05-21T23:51:16.219Z,98907.81
2023-05-21T23:53:42.649Z,98918.09
2023-05-21T23:56:09.142Z,98905.88
2023-05-21T23:58:35.589Z,98910.75
